sensor_id;sensor_type;location;lat;lon;timestamp;temperature;humidity
12408;DHT22;6268;48.188;17.134;2024-01-30T00:00:17;2.40;99.90
12408;DHT22;6268;48.188;17.134;2024-01-30T00:02:46;2.40;99.90
12408;DHT22;6268;48.188;17.134;2024-01-30T00:05:15;2.40;99.90
12408;DHT22;6268;48.188;17.134;2024-01-30T00:07:43;2.40;99.90
12408;DHT22;6268;48.188;17.134;2024-01-30T00:10:12;2.40;99.90
12408;DHT22;6268;48.188;17.134;2024-01-30T00:12:40;2.40;99.90
12408;DHT22;6268;48.188;17.134;2024-01-30T00:15:10;2.40;99.90
12408;DHT22;6268;48.188;17.134;2024-01-30T00:17:39;2.40;99.90
12408;DHT22;6268;48.188;17.134;2024-01-30T00:20:08;2.40;99.90
12408;DHT22;6268;48.188;17.134;2024-01-30T00:22:37;2.40;99.90
12408;DHT22;6268;48.188;17.134;2024-01-30T00:25:06;2.40;99.90
12408;DHT22;6268;48.188;17.134;2024-01-30T00:27:34;2.40;99.90
12408;DHT22;6268;48.188;17.134;2024-01-30T00:30:03;2.30;99.90
12408;DHT22;6268;48.188;17.134;2024-01-30T00:32:33;2.30;99.90
12408;DHT22;6268;48.188;17.134;2024-01-30T00:35:02;2.30;99.90
12408;DHT22;6268;48.188;17.134;2024-01-30T00:37:31;2.20;99.90
12408;DHT22;6268;48.188;17.134;2024-01-30T00:39:59;2.20;99.90
12408;DHT22;6268;48.188;17.134;2024-01-30T00:42:28;2.20;99.90
12408;DHT22;6268;48.188;17.134;2024-01-30T00:44:56;2.10;99.90
12408;DHT22;6268;48.188;17.134;2024-01-30T00:47:24;2.10;99.90
12408;DHT22;6268;48.188;17.134;2024-01-30T00:49:54;2.20;99.90
12408;DHT22;6268;48.188;17.134;2024-01-30T00:52:23;2.10;99.90
12408;DHT22;6268;48.188;17.134;2024-01-30T00:54:51;2.10;99.90
12408;DHT22;6268;48.188;17.134;2024-01-30T00:57:20;2.10;99.90
12408;DHT22;6268;48.188;17.134;2024-01-30T00:59:48;2.20;99.90
12408;DHT22;6268;48.188;17.134;2024-01-30T01:02:16;2.20;99.90
12408;DHT22;6268;48.188;17.134;2024-01-30T01:04:45;2.20;99.90
12408;DHT22;6268;48.188;17.134;2024-01-30T01:07:15;2.10;99.90
12408;DHT22;6268;48.188;17.134;2024-01-30T01:09:43;2.10;99.90
12408;DHT22;6268;48.188;17.134;2024-01-30T01:12:12;2.00;99.90
12408;DHT22;6268;48.188;17.134;2024-01-30T01:14:40;2.00;99.90
12408;DHT22;6268;48.188;17.134;2024-01-30T01:17:09;2.10;99.90
12408;DHT22;6268;48.188;17.134;2024-01-30T01:19:37;2.10;99.90
12408;DHT22;6268;48.188;17.134;2024-01-30T01:22:06;2.10;99.90
12408;DHT22;6268;48.188;17.134;2024-01-30T01:24:37;2.10;99.90
12408;DHT22;6268;48.188;17.134;2024-01-30T01:27:05;2.10;99.90
12408;DHT22;6268;48.188;17.134;2024-01-30T01:29:34;2.10;99.90
12408;DHT22;6268;48.188;17.134;2024-01-30T01:32:02;2.10;99.90
12408;DHT22;6268;48.188;17.134;2024-01-30T01:34:31;2.00;99.90
12408;DHT22;6268;48.188;17.134;2024-01-30T01:37:00;1.90;99.90
12408;DHT22;6268;48.188;17.134;2024-01-30T01:39:28;1.90;99.90
12408;DHT22;6268;48.188;17.134;2024-01-30T01:41:58;1.80;99.90
12408;DHT22;6268;48.188;17.134;2024-01-30T01:44:27;1.80;99.90
12408;DHT22;6268;48.188;17.134;2024-01-30T01:46:55;1.80;99.90
12408;DHT22;6268;48.188;17.134;2024-01-30T01:49:25;1.80;99.90
12408;DHT22;6268;48.188;17.134;2024-01-30T01:51:57;1.80;99.90
12408;DHT22;6268;48.188;17.134;2024-01-30T01:54:26;1.90;99.90
12408;DHT22;6268;48.188;17.134;2024-01-30T01:56:58;1.90;99.90
12408;DHT22;6268;48.188;17.134;2024-01-30T01:59:27;1.90;99.90
12408;DHT22;6268;48.188;17.134;2024-01-30T02:01:56;1.90;99.90
12408;DHT22;6268;48.188;17.134;2024-01-30T02:04:24;1.80;99.90
12408;DHT22;6268;48.188;17.134;2024-01-30T02:06:53;1.80;99.90
12408;DHT22;6268;48.188;17.134;2024-01-30T02:09:22;1.80;99.90
12408;DHT22;6268;48.188;17.134;2024-01-30T02:11:50;1.90;99.90
12408;DHT22;6268;48.188;17.134;2024-01-30T02:14:20;1.90;99.90
12408;DHT22;6268;48.188;17.134;2024-01-30T02:16:49;1.90;99.90
12408;DHT22;6268;48.188;17.134;2024-01-30T02:19:17;1.90;99.90
12408;DHT22;6268;48.188;17.134;2024-01-30T02:21:48;1.80;99.90
12408;DHT22;6268;48.188;17.134;2024-01-30T02:24:17;1.80;99.90
12408;DHT22;6268;48.188;17.134;2024-01-30T02:26:46;1.70;99.90
12408;DHT22;6268;48.188;17.134;2024-01-30T02:29:14;1.60;99.90
12408;DHT22;6268;48.188;17.134;2024-01-30T02:31:43;1.50;99.90
12408;DHT22;6268;48.188;17.134;2024-01-30T02:34:13;1.60;99.90
12408;DHT22;6268;48.188;17.134;2024-01-30T02:36:42;1.50;99.90
12408;DHT22;6268;48.188;17.134;2024-01-30T02:39:12;1.40;99.90
12408;DHT22;6268;48.188;17.134;2024-01-30T02:41:41;1.30;99.90
12408;DHT22;6268;48.188;17.134;2024-01-30T02:44:09;1.30;99.90
12408;DHT22;6268;48.188;17.134;2024-01-30T02:46:37;1.20;99.90
12408;DHT22;6268;48.188;17.134;2024-01-30T02:49:06;1.20;99.90
12408;DHT22;6268;48.188;17.134;2024-01-30T02:51:34;1.30;99.90
12408;DHT22;6268;48.188;17.134;2024-01-30T02:54:03;1.30;99.90
12408;DHT22;6268;48.188;17.134;2024-01-30T02:56:32;1.30;99.90
12408;DHT22;6268;48.188;17.134;2024-01-30T02:59:01;1.30;99.90
12408;DHT22;6268;48.188;17.134;2024-01-30T03:01:29;1.30;99.90
12408;DHT22;6268;48.188;17.134;2024-01-30T03:03:59;1.20;99.90
12408;DHT22;6268;48.188;17.134;2024-01-30T03:06:28;1.20;99.90
12408;DHT22;6268;48.188;17.134;2024-01-30T03:08:56;1.20;99.90
12408;DHT22;6268;48.188;17.134;2024-01-30T03:11:25;1.10;99.90
12408;DHT22;6268;48.188;17.134;2024-01-30T03:13:54;1.10;99.90
12408;DHT22;6268;48.188;17.134;2024-01-30T03:16:23;1.20;99.90
12408;DHT22;6268;48.188;17.134;2024-01-30T03:18:51;1.20;99.90
12408;DHT22;6268;48.188;17.134;2024-01-30T03:21:20;1.20;99.90
12408;DHT22;6268;48.188;17.134;2024-01-30T03:23:48;1.20;99.90
12408;DHT22;6268;48.188;17.134;2024-01-30T03:26:17;1.20;99.90
12408;DHT22;6268;48.188;17.134;2024-01-30T03:28:45;1.20;99.90
12408;DHT22;6268;48.188;17.134;2024-01-30T03:31:16;1.10;99.90
12408;DHT22;6268;48.188;17.134;2024-01-30T03:33:44;1.10;99.90
12408;DHT22;6268;48.188;17.134;2024-01-30T03:36:14;1.20;99.90
12408;DHT22;6268;48.188;17.134;2024-01-30T03:38:43;1.10;99.90
12408;DHT22;6268;48.188;17.134;2024-01-30T03:41:11;1.10;99.90
12408;DHT22;6268;48.188;17.134;2024-01-30T03:43:40;1.10;99.90
12408;DHT22;6268;48.188;17.134;2024-01-30T03:46:09;1.10;99.90
12408;DHT22;6268;48.188;17.134;2024-01-30T03:48:39;1.10;99.90
12408;DHT22;6268;48.188;17.134;2024-01-30T03:51:07;1.10;99.90
12408;DHT22;6268;48.188;17.134;2024-01-30T03:53:36;1.10;99.90
12408;DHT22;6268;48.188;17.134;2024-01-30T03:56:04;1.10;99.90
12408;DHT22;6268;48.188;17.134;2024-01-30T03:58:33;1.00;99.90
12408;DHT22;6268;48.188;17.134;2024-01-30T04:01:01;1.00;99.90
12408;DHT22;6268;48.188;17.134;2024-01-30T04:03:30;1.00;99.90
12408;DHT22;6268;48.188;17.134;2024-01-30T04:06:01;1.00;99.90
12408;DHT22;6268;48.188;17.134;2024-01-30T04:08:29;1.00;99.90
12408;DHT22;6268;48.188;17.134;2024-01-30T04:10:58;1.00;99.90
12408;DHT22;6268;48.188;17.134;2024-01-30T04:13:26;1.00;99.90
12408;DHT22;6268;48.188;17.134;2024-01-30T04:15:55;0.90;99.90
12408;DHT22;6268;48.188;17.134;2024-01-30T04:18:23;0.90;99.90
12408;DHT22;6268;48.188;17.134;2024-01-30T04:20:52;0.80;99.90
12408;DHT22;6268;48.188;17.134;2024-01-30T04:23:22;0.80;99.90
12408;DHT22;6268;48.188;17.134;2024-01-30T04:25:50;0.90;99.90
12408;DHT22;6268;48.188;17.134;2024-01-30T04:28:19;0.90;99.90
12408;DHT22;6268;48.188;17.134;2024-01-30T04:30:47;0.80;99.90
12408;DHT22;6268;48.188;17.134;2024-01-30T04:33:16;0.80;99.90
12408;DHT22;6268;48.188;17.134;2024-01-30T04:35:45;0.80;99.90
12408;DHT22;6268;48.188;17.134;2024-01-30T04:38:14;0.80;99.90
12408;DHT22;6268;48.188;17.134;2024-01-30T04:40:44;0.80;99.90
12408;DHT22;6268;48.188;17.134;2024-01-30T04:43:12;0.70;99.90
12408;DHT22;6268;48.188;17.134;2024-01-30T04:45:42;0.70;99.90
12408;DHT22;6268;48.188;17.134;2024-01-30T04:48:10;0.70;99.90
12408;DHT22;6268;48.188;17.134;2024-01-30T04:50:39;0.70;99.90
12408;DHT22;6268;48.188;17.134;2024-01-30T04:53:07;0.70;99.90
12408;DHT22;6268;48.188;17.134;2024-01-30T04:55:35;0.70;99.90
12408;DHT22;6268;48.188;17.134;2024-01-30T04:58:06;0.70;99.90
12408;DHT22;6268;48.188;17.134;2024-01-30T05:00:34;0.70;99.90
12408;DHT22;6268;48.188;17.134;2024-01-30T05:03:03;0.70;99.90
12408;DHT22;6268;48.188;17.134;2024-01-30T05:05:32;0.70;99.90
12408;DHT22;6268;48.188;17.134;2024-01-30T05:08:00;0.70;99.90
12408;DHT22;6268;48.188;17.134;2024-01-30T05:10:29;0.70;99.90
12408;DHT22;6268;48.188;17.134;2024-01-30T05:12:58;0.70;99.90
12408;DHT22;6268;48.188;17.134;2024-01-30T05:15:27;0.80;99.90
12408;DHT22;6268;48.188;17.134;2024-01-30T05:17:56;0.80;99.90
12408;DHT22;6268;48.188;17.134;2024-01-30T05:20:24;0.80;99.90
12408;DHT22;6268;48.188;17.134;2024-01-30T05:22:55;0.80;99.90
12408;DHT22;6268;48.188;17.134;2024-01-30T05:25:23;0.80;99.90
12408;DHT22;6268;48.188;17.134;2024-01-30T05:27:52;0.80;99.90
12408;DHT22;6268;48.188;17.134;2024-01-30T05:30:20;0.80;99.90
12408;DHT22;6268;48.188;17.134;2024-01-30T05:32:50;0.70;99.90
12408;DHT22;6268;48.188;17.134;2024-01-30T05:35:20;0.70;99.90
12408;DHT22;6268;48.188;17.134;2024-01-30T05:37:49;0.60;99.90
12408;DHT22;6268;48.188;17.134;2024-01-30T05:40:18;0.60;99.90
12408;DHT22;6268;48.188;17.134;2024-01-30T05:42:46;0.50;99.90
12408;DHT22;6268;48.188;17.134;2024-01-30T05:45:15;0.60;99.90
12408;DHT22;6268;48.188;17.134;2024-01-30T05:47:43;0.60;99.90
12408;DHT22;6268;48.188;17.134;2024-01-30T05:50:13;0.60;99.90
12408;DHT22;6268;48.188;17.134;2024-01-30T05:52:42;0.50;99.90
12408;DHT22;6268;48.188;17.134;2024-01-30T05:55:11;0.50;99.90
12408;DHT22;6268;48.188;17.134;2024-01-30T05:57:40;0.50;99.90
12408;DHT22;6268;48.188;17.134;2024-01-30T06:00:09;0.50;99.90
12408;DHT22;6268;48.188;17.134;2024-01-30T06:02:37;0.40;99.90
12408;DHT22;6268;48.188;17.134;2024-01-30T06:05:06;0.50;99.90
12408;DHT22;6268;48.188;17.134;2024-01-30T06:07:36;0.40;99.90
12408;DHT22;6268;48.188;17.134;2024-01-30T06:10:06;0.50;99.90
12408;DHT22;6268;48.188;17.134;2024-01-30T06:12:35;0.50;99.90
12408;DHT22;6268;48.188;17.134;2024-01-30T06:15:05;0.50;99.90
12408;DHT22;6268;48.188;17.134;2024-01-30T06:17:34;0.50;99.90
12408;DHT22;6268;48.188;17.134;2024-01-30T06:20:03;0.50;99.90
12408;DHT22;6268;48.188;17.134;2024-01-30T06:22:32;0.50;99.90
12408;DHT22;6268;48.188;17.134;2024-01-30T06:25:02;0.50;99.90
12408;DHT22;6268;48.188;17.134;2024-01-30T06:27:31;0.40;99.90
12408;DHT22;6268;48.188;17.134;2024-01-30T06:30:00;0.50;99.90
12408;DHT22;6268;48.188;17.134;2024-01-30T06:32:28;0.50;99.90
12408;DHT22;6268;48.188;17.134;2024-01-30T06:35:01;0.60;99.90
12408;DHT22;6268;48.188;17.134;2024-01-30T06:37:30;0.60;99.90
12408;DHT22;6268;48.188;17.134;2024-01-30T06:39:58;0.70;99.90
12408;DHT22;6268;48.188;17.134;2024-01-30T06:42:28;0.70;99.90
12408;DHT22;6268;48.188;17.134;2024-01-30T06:44:57;0.80;99.90
12408;DHT22;6268;48.188;17.134;2024-01-30T06:47:25;1.00;99.90
12408;DHT22;6268;48.188;17.134;2024-01-30T06:49:54;1.20;99.90
12408;DHT22;6268;48.188;17.134;2024-01-30T06:52:22;1.30;99.90
12408;DHT22;6268;48.188;17.134;2024-01-30T06:54:51;1.60;99.90
12408;DHT22;6268;48.188;17.134;2024-01-30T06:57:19;1.60;99.90
12408;DHT22;6268;48.188;17.134;2024-01-30T06:59:49;1.70;99.90
12408;DHT22;6268;48.188;17.134;2024-01-30T07:02:20;1.90;99.90
12408;DHT22;6268;48.188;17.134;2024-01-30T07:04:48;2.10;99.90
12408;DHT22;6268;48.188;17.134;2024-01-30T07:07:17;2.40;99.90
12408;DHT22;6268;48.188;17.134;2024-01-30T07:09:46;2.70;99.90
12408;DHT22;6268;48.188;17.134;2024-01-30T07:12:16;2.80;99.90
12408;DHT22;6268;48.188;17.134;2024-01-30T07:14:45;2.80;99.90
12408;DHT22;6268;48.188;17.134;2024-01-30T07:17:15;3.00;99.90
12408;DHT22;6268;48.188;17.134;2024-01-30T07:19:43;3.10;99.90
12408;DHT22;6268;48.188;17.134;2024-01-30T07:22:12;3.30;99.90
12408;DHT22;6268;48.188;17.134;2024-01-30T07:24:42;3.70;99.90
12408;DHT22;6268;48.188;17.134;2024-01-30T07:27:14;4.00;99.90
12408;DHT22;6268;48.188;17.134;2024-01-30T07:29:45;4.20;99.90
12408;DHT22;6268;48.188;17.134;2024-01-30T07:32:14;4.30;99.90
12408;DHT22;6268;48.188;17.134;2024-01-30T07:34:43;4.30;99.90
12408;DHT22;6268;48.188;17.134;2024-01-30T07:37:29;4.20;99.90
12408;DHT22;6268;48.188;17.134;2024-01-30T07:39:57;4.10;99.90
12408;DHT22;6268;48.188;17.134;2024-01-30T07:42:26;3.90;99.90
12408;DHT22;6268;48.188;17.134;2024-01-30T07:44:54;3.90;99.90
12408;DHT22;6268;48.188;17.134;2024-01-30T07:47:24;4.00;99.90
12408;DHT22;6268;48.188;17.134;2024-01-30T07:49:53;4.30;99.90
12408;DHT22;6268;48.188;17.134;2024-01-30T07:52:23;4.50;99.90
12408;DHT22;6268;48.188;17.134;2024-01-30T07:54:51;4.60;99.90
12408;DHT22;6268;48.188;17.134;2024-01-30T07:57:20;4.30;99.90
12408;DHT22;6268;48.188;17.134;2024-01-30T07:59:48;4.50;99.90
12408;DHT22;6268;48.188;17.134;2024-01-30T08:02:17;4.50;99.90
12408;DHT22;6268;48.188;17.134;2024-01-30T08:04:51;4.90;99.90
12408;DHT22;6268;48.188;17.134;2024-01-30T08:07:20;5.30;99.90
12408;DHT22;6268;48.188;17.134;2024-01-30T08:09:49;5.50;99.90
12408;DHT22;6268;48.188;17.134;2024-01-30T08:12:18;5.40;99.90
12408;DHT22;6268;48.188;17.134;2024-01-30T08:14:47;5.50;99.90
12408;DHT22;6268;48.188;17.134;2024-01-30T08:17:15;5.20;99.90
12408;DHT22;6268;48.188;17.134;2024-01-30T08:19:43;4.80;99.90
12408;DHT22;6268;48.188;17.134;2024-01-30T08:22:14;5.00;99.90
12408;DHT22;6268;48.188;17.134;2024-01-30T08:24:42;5.30;99.90
12408;DHT22;6268;48.188;17.134;2024-01-30T08:27:11;5.70;99.90
12408;DHT22;6268;48.188;17.134;2024-01-30T08:29:39;5.60;99.90
12408;DHT22;6268;48.188;17.134;2024-01-30T08:32:08;5.90;99.90
12408;DHT22;6268;48.188;17.134;2024-01-30T08:34:36;6.20;99.90
12408;DHT22;6268;48.188;17.134;2024-01-30T08:37:05;6.10;99.90
12408;DHT22;6268;48.188;17.134;2024-01-30T08:39:35;6.20;99.90
12408;DHT22;6268;48.188;17.134;2024-01-30T08:42:04;6.20;99.90
12408;DHT22;6268;48.188;17.134;2024-01-30T08:44:36;6.20;99.90
12408;DHT22;6268;48.188;17.134;2024-01-30T08:47:05;6.50;99.90
12408;DHT22;6268;48.188;17.134;2024-01-30T08:49:34;6.60;99.90
12408;DHT22;6268;48.188;17.134;2024-01-30T08:52:03;6.40;99.90
12408;DHT22;6268;48.188;17.134;2024-01-30T08:54:32;6.40;99.90
12408;DHT22;6268;48.188;17.134;2024-01-30T08:57:03;6.70;99.90
12408;DHT22;6268;48.188;17.134;2024-01-30T08:59:32;6.40;99.90
12408;DHT22;6268;48.188;17.134;2024-01-30T09:02:01;6.00;99.90
12408;DHT22;6268;48.188;17.134;2024-01-30T09:04:38;5.90;99.90
12408;DHT22;6268;48.188;17.134;2024-01-30T09:07:09;6.40;99.90
12408;DHT22;6268;48.188;17.134;2024-01-30T09:09:38;6.90;99.90
12408;DHT22;6268;48.188;17.134;2024-01-30T09:12:09;7.20;99.90
12408;DHT22;6268;48.188;17.134;2024-01-30T09:14:40;7.20;99.90
12408;DHT22;6268;48.188;17.134;2024-01-30T09:17:09;7.00;99.90
12408;DHT22;6268;48.188;17.134;2024-01-30T09:19:38;6.90;99.90
12408;DHT22;6268;48.188;17.134;2024-01-30T09:22:06;6.90;99.90
12408;DHT22;6268;48.188;17.134;2024-01-30T09:24:35;7.10;99.90
12408;DHT22;6268;48.188;17.134;2024-01-30T09:27:04;7.30;99.90
12408;DHT22;6268;48.188;17.134;2024-01-30T09:29:34;7.60;99.90
12408;DHT22;6268;48.188;17.134;2024-01-30T09:32:05;8.00;99.90
12408;DHT22;6268;48.188;17.134;2024-01-30T09:34:33;7.70;99.90
12408;DHT22;6268;48.188;17.134;2024-01-30T09:37:03;7.40;99.90
12408;DHT22;6268;48.188;17.134;2024-01-30T09:39:32;7.50;99.90
12408;DHT22;6268;48.188;17.134;2024-01-30T09:42:05;7.90;99.90
12408;DHT22;6268;48.188;17.134;2024-01-30T09:44:35;8.00;99.90
12408;DHT22;6268;48.188;17.134;2024-01-30T09:47:06;8.10;99.90
12408;DHT22;6268;48.188;17.134;2024-01-30T09:49:35;7.50;99.90
12408;DHT22;6268;48.188;17.134;2024-01-30T09:52:05;6.90;99.90
12408;DHT22;6268;48.188;17.134;2024-01-30T09:54:34;6.90;99.90
12408;DHT22;6268;48.188;17.134;2024-01-30T09:57:03;7.20;99.90
12408;DHT22;6268;48.188;17.134;2024-01-30T09:59:32;7.60;99.90
12408;DHT22;6268;48.188;17.134;2024-01-30T10:02:02;7.80;99.90
12408;DHT22;6268;48.188;17.134;2024-01-30T10:04:31;7.80;99.90
12408;DHT22;6268;48.188;17.134;2024-01-30T10:07:01;7.70;99.90
12408;DHT22;6268;48.188;17.134;2024-01-30T10:09:32;7.40;99.90
12408;DHT22;6268;48.188;17.134;2024-01-30T10:12:02;7.40;99.90
12408;DHT22;6268;48.188;17.134;2024-01-30T10:14:31;7.50;99.90
12408;DHT22;6268;48.188;17.134;2024-01-30T10:17:02;7.50;99.90
12408;DHT22;6268;48.188;17.134;2024-01-30T10:19:41;7.40;99.90
12408;DHT22;6268;48.188;17.134;2024-01-30T10:22:12;7.10;99.90
12408;DHT22;6268;48.188;17.134;2024-01-30T10:24:41;7.10;99.90
12408;DHT22;6268;48.188;17.134;2024-01-30T10:27:09;6.90;99.90
12408;DHT22;6268;48.188;17.134;2024-01-30T10:29:38;7.00;99.90
12408;DHT22;6268;48.188;17.134;2024-01-30T10:32:08;7.00;99.90
12408;DHT22;6268;48.188;17.134;2024-01-30T10:34:37;7.20;99.90
12408;DHT22;6268;48.188;17.134;2024-01-30T10:37:08;7.40;99.90
12408;DHT22;6268;48.188;17.134;2024-01-30T10:39:40;7.20;99.90
12408;DHT22;6268;48.188;17.134;2024-01-30T10:42:12;7.40;99.90
12408;DHT22;6268;48.188;17.134;2024-01-30T10:44:47;7.60;99.90
12408;DHT22;6268;48.188;17.134;2024-01-30T10:47:25;7.70;99.90
12408;DHT22;6268;48.188;17.134;2024-01-30T10:49:54;7.70;99.90
12408;DHT22;6268;48.188;17.134;2024-01-30T10:52:24;7.60;99.90
12408;DHT22;6268;48.188;17.134;2024-01-30T10:54:55;7.70;99.90
12408;DHT22;6268;48.188;17.134;2024-01-30T10:57:24;7.60;99.90
12408;DHT22;6268;48.188;17.134;2024-01-30T10:59:56;7.60;99.90
12408;DHT22;6268;48.188;17.134;2024-01-30T11:02:26;7.50;99.90
12408;DHT22;6268;48.188;17.134;2024-01-30T11:04:56;7.40;99.90
12408;DHT22;6268;48.188;17.134;2024-01-30T11:07:27;7.30;99.90
12408;DHT22;6268;48.188;17.134;2024-01-30T11:10:01;7.40;99.90
12408;DHT22;6268;48.188;17.134;2024-01-30T11:12:32;7.40;99.90
12408;DHT22;6268;48.188;17.134;2024-01-30T11:15:02;7.40;99.90
12408;DHT22;6268;48.188;17.134;2024-01-30T11:17:51;7.60;99.90
12408;DHT22;6268;48.188;17.134;2024-01-30T11:20:21;7.60;99.90
12408;DHT22;6268;48.188;17.134;2024-01-30T11:22:51;7.80;99.90
12408;DHT22;6268;48.188;17.134;2024-01-30T11:25:21;7.90;99.90
12408;DHT22;6268;48.188;17.134;2024-01-30T11:27:51;7.70;99.90
12408;DHT22;6268;48.188;17.134;2024-01-30T11:30:24;7.50;99.90
12408;DHT22;6268;48.188;17.134;2024-01-30T11:33:02;7.60;99.90
12408;DHT22;6268;48.188;17.134;2024-01-30T11:35:35;7.70;99.90
12408;DHT22;6268;48.188;17.134;2024-01-30T11:38:04;7.30;99.90
12408;DHT22;6268;48.188;17.134;2024-01-30T11:40:34;7.20;99.90
12408;DHT22;6268;48.188;17.134;2024-01-30T11:43:04;7.40;99.90
12408;DHT22;6268;48.188;17.134;2024-01-30T11:45:34;7.30;99.90
12408;DHT22;6268;48.188;17.134;2024-01-30T11:48:05;7.30;99.90
12408;DHT22;6268;48.188;17.134;2024-01-30T11:50:38;7.20;99.90
12408;DHT22;6268;48.188;17.134;2024-01-30T11:53:07;7.20;99.90
12408;DHT22;6268;48.188;17.134;2024-01-30T11:55:35;7.00;99.90
12408;DHT22;6268;48.188;17.134;2024-01-30T11:58:05;6.90;99.90
12408;DHT22;6268;48.188;17.134;2024-01-30T12:00:33;7.00;99.90
12408;DHT22;6268;48.188;17.134;2024-01-30T12:03:04;7.20;99.90
12408;DHT22;6268;48.188;17.134;2024-01-30T12:05:34;7.20;99.90
12408;DHT22;6268;48.188;17.134;2024-01-30T12:08:04;7.20;99.90
12408;DHT22;6268;48.188;17.134;2024-01-30T12:10:34;7.40;99.90
12408;DHT22;6268;48.188;17.134;2024-01-30T12:13:03;7.30;99.90
12408;DHT22;6268;48.188;17.134;2024-01-30T12:15:32;7.20;99.90
12408;DHT22;6268;48.188;17.134;2024-01-30T12:18:08;7.40;99.90
12408;DHT22;6268;48.188;17.134;2024-01-30T12:20:37;7.40;99.90
12408;DHT22;6268;48.188;17.134;2024-01-30T12:23:06;7.50;99.90
12408;DHT22;6268;48.188;17.134;2024-01-30T12:25:34;7.40;99.90
12408;DHT22;6268;48.188;17.134;2024-01-30T12:28:03;7.20;99.90
12408;DHT22;6268;48.188;17.134;2024-01-30T12:30:35;7.30;99.90
12408;DHT22;6268;48.188;17.134;2024-01-30T12:33:03;7.30;99.90
12408;DHT22;6268;48.188;17.134;2024-01-30T12:35:37;7.40;99.90
12408;DHT22;6268;48.188;17.134;2024-01-30T12:38:18;7.40;99.90
12408;DHT22;6268;48.188;17.134;2024-01-30T12:40:47;7.20;99.90
12408;DHT22;6268;48.188;17.134;2024-01-30T12:43:16;7.10;99.90
12408;DHT22;6268;48.188;17.134;2024-01-30T12:45:58;7.00;99.90
12408;DHT22;6268;48.188;17.134;2024-01-30T12:48:28;7.10;99.90
12408;DHT22;6268;48.188;17.134;2024-01-30T12:50:58;7.00;99.90
12408;DHT22;6268;48.188;17.134;2024-01-30T12:53:27;7.00;99.90
12408;DHT22;6268;48.188;17.134;2024-01-30T12:55:56;7.00;99.90
12408;DHT22;6268;48.188;17.134;2024-01-30T12:58:24;7.00;99.90
12408;DHT22;6268;48.188;17.134;2024-01-30T13:00:53;7.00;99.90
12408;DHT22;6268;48.188;17.134;2024-01-30T13:03:22;6.90;99.90
12408;DHT22;6268;48.188;17.134;2024-01-30T13:05:51;6.90;99.90
12408;DHT22;6268;48.188;17.134;2024-01-30T13:08:21;7.00;99.90
12408;DHT22;6268;48.188;17.134;2024-01-30T13:10:50;7.00;99.90
12408;DHT22;6268;48.188;17.134;2024-01-30T13:13:18;6.90;99.90
12408;DHT22;6268;48.188;17.134;2024-01-30T13:15:47;6.90;99.90
12408;DHT22;6268;48.188;17.134;2024-01-30T13:18:16;6.90;99.90
12408;DHT22;6268;48.188;17.134;2024-01-30T13:20:44;6.80;99.90
12408;DHT22;6268;48.188;17.134;2024-01-30T13:23:13;6.70;99.90
12408;DHT22;6268;48.188;17.134;2024-01-30T13:25:43;6.70;99.90
12408;DHT22;6268;48.188;17.134;2024-01-30T13:28:11;6.70;99.90
12408;DHT22;6268;48.188;17.134;2024-01-30T13:30:40;6.80;99.90
12408;DHT22;6268;48.188;17.134;2024-01-30T13:33:09;6.70;99.90
12408;DHT22;6268;48.188;17.134;2024-01-30T13:35:37;6.70;99.90
12408;DHT22;6268;48.188;17.134;2024-01-30T13:38:05;6.70;99.90
12408;DHT22;6268;48.188;17.134;2024-01-30T13:40:34;6.70;99.90
12408;DHT22;6268;48.188;17.134;2024-01-30T13:43:05;6.70;99.90
12408;DHT22;6268;48.188;17.134;2024-01-30T13:45:34;6.70;99.90
12408;DHT22;6268;48.188;17.134;2024-01-30T13:48:02;6.80;99.90
12408;DHT22;6268;48.188;17.134;2024-01-30T13:50:31;6.80;99.90
12408;DHT22;6268;48.188;17.134;2024-01-30T13:53:02;6.80;99.90
12408;DHT22;6268;48.188;17.134;2024-01-30T13:55:31;6.80;99.90
12408;DHT22;6268;48.188;17.134;2024-01-30T13:57:59;6.80;99.90
12408;DHT22;6268;48.188;17.134;2024-01-30T14:00:30;6.90;99.90
12408;DHT22;6268;48.188;17.134;2024-01-30T14:02:58;6.90;99.90
12408;DHT22;6268;48.188;17.134;2024-01-30T14:05:27;6.90;99.90
12408;DHT22;6268;48.188;17.134;2024-01-30T14:07:56;6.90;99.90
12408;DHT22;6268;48.188;17.134;2024-01-30T14:10:26;6.80;99.90
12408;DHT22;6268;48.188;17.134;2024-01-30T14:12:54;6.80;99.90
12408;DHT22;6268;48.188;17.134;2024-01-30T14:15:23;6.80;99.90
12408;DHT22;6268;48.188;17.134;2024-01-30T14:17:57;6.80;99.90
12408;DHT22;6268;48.188;17.134;2024-01-30T14:20:26;6.80;99.90
12408;DHT22;6268;48.188;17.134;2024-01-30T14:22:55;6.90;99.90
12408;DHT22;6268;48.188;17.134;2024-01-30T14:25:24;6.90;99.90
12408;DHT22;6268;48.188;17.134;2024-01-30T14:27:53;6.90;99.90
12408;DHT22;6268;48.188;17.134;2024-01-30T14:30:21;6.90;99.90
12408;DHT22;6268;48.188;17.134;2024-01-30T14:32:50;6.90;99.90
12408;DHT22;6268;48.188;17.134;2024-01-30T14:35:21;6.90;99.90
12408;DHT22;6268;48.188;17.134;2024-01-30T14:37:50;6.90;99.90
12408;DHT22;6268;48.188;17.134;2024-01-30T14:40:18;6.80;99.90
12408;DHT22;6268;48.188;17.134;2024-01-30T14:42:47;6.80;99.90
12408;DHT22;6268;48.188;17.134;2024-01-30T14:45:16;6.70;99.90
12408;DHT22;6268;48.188;17.134;2024-01-30T14:47:45;6.70;99.90
12408;DHT22;6268;48.188;17.134;2024-01-30T14:50:14;6.60;99.90
12408;DHT22;6268;48.188;17.134;2024-01-30T14:52:45;6.50;99.90
12408;DHT22;6268;48.188;17.134;2024-01-30T14:55:14;6.50;99.90
12408;DHT22;6268;48.188;17.134;2024-01-30T14:57:42;6.50;99.90
12408;DHT22;6268;48.188;17.134;2024-01-30T15:00:13;6.50;99.90
12408;DHT22;6268;48.188;17.134;2024-01-30T15:02:43;6.50;99.90
12408;DHT22;6268;48.188;17.134;2024-01-30T15:05:13;6.50;99.90
12408;DHT22;6268;48.188;17.134;2024-01-30T15:07:42;6.50;99.90
12408;DHT22;6268;48.188;17.134;2024-01-30T15:10:12;6.50;99.90
12408;DHT22;6268;48.188;17.134;2024-01-30T15:12:41;6.40;99.90
12408;DHT22;6268;48.188;17.134;2024-01-30T15:15:09;6.40;99.90
12408;DHT22;6268;48.188;17.134;2024-01-30T15:17:38;6.40;99.90
12408;DHT22;6268;48.188;17.134;2024-01-30T15:20:08;6.30;99.90
12408;DHT22;6268;48.188;17.134;2024-01-30T15:22:37;6.20;99.90
12408;DHT22;6268;48.188;17.134;2024-01-30T15:25:07;6.20;99.90
12408;DHT22;6268;48.188;17.134;2024-01-30T15:27:38;6.20;99.90
12408;DHT22;6268;48.188;17.134;2024-01-30T15:30:07;6.20;99.90
12408;DHT22;6268;48.188;17.134;2024-01-30T15:32:36;6.20;99.90
12408;DHT22;6268;48.188;17.134;2024-01-30T15:35:05;6.10;99.90
12408;DHT22;6268;48.188;17.134;2024-01-30T15:37:35;6.00;99.90
12408;DHT22;6268;48.188;17.134;2024-01-30T15:40:05;6.00;99.90
12408;DHT22;6268;48.188;17.134;2024-01-30T15:42:37;6.00;99.90
12408;DHT22;6268;48.188;17.134;2024-01-30T15:45:06;5.90;99.90
12408;DHT22;6268;48.188;17.134;2024-01-30T15:47:34;5.90;99.90
12408;DHT22;6268;48.188;17.134;2024-01-30T15:50:04;5.90;99.90
12408;DHT22;6268;48.188;17.134;2024-01-30T15:52:33;5.90;99.90
12408;DHT22;6268;48.188;17.134;2024-01-30T15:55:02;5.80;99.90
12408;DHT22;6268;48.188;17.134;2024-01-30T15:57:31;5.80;99.90